createdAt,value
2018-06-10T00:02:22.258Z,17.79
2018-06-10T00:04:50.007Z,17.75
2018-06-10T00:07:17.749Z,17.69
2018-06-10T00:09:45.533Z,17.67
2018-06-10T00:12:13.231Z,17.67
2018-06-10T00:14:41.003Z,17.68
2018-06-10T00:17:08.695Z,17.67
2018-06-10T00:19:36.387Z,17.68
2018-06-10T00:22:04.118Z,17.74
2018-06-10T00:24:31.782Z,17.68
2018-06-10T00:26:59.482Z,17.72
2018-06-10T00:29:27.235Z,17.75
2018-06-10T00:31:54.902Z,17.70
2018-06-10T00:34:22.590Z,17.67
2018-06-10T00:36:50.319Z,17.53
2018-06-10T00:39:18.106Z,17.49
2018-06-10T00:41:45.791Z,17.52
2018-06-10T00:44:13.526Z,17.64
2018-06-10T00:46:41.187Z,17.64
2018-06-10T00:49:08.876Z,17.49
2018-06-10T00:51:36.603Z,17.39
2018-06-10T00:54:04.630Z,17.28
2018-06-10T00:56:38.064Z,17.20
2018-06-10T00:59:06.762Z,17.18
2018-06-10T01:01:34.523Z,17.23
2018-06-10T01:04:02.279Z,17.28
2018-06-10T01:06:29.993Z,17.28
2018-06-10T01:08:57.733Z,17.25
2018-06-10T01:11:25.462Z,17.19
2018-06-10T01:13:53.194Z,17.26
2018-06-10T01:16:20.830Z,17.29
2018-06-10T01:18:48.589Z,17.15
2018-06-10T01:21:16.298Z,17.08
2018-06-10T01:23:44.104Z,17.03
2018-06-10T01:26:11.892Z,17.02
2018-06-10T01:28:39.569Z,16.97
2018-06-10T01:31:07.243Z,16.99
2018-06-10T01:33:34.985Z,16.90
2018-06-10T01:36:02.667Z,16.96
2018-06-10T01:38:30.358Z,17.01
2018-06-10T01:40:58.075Z,17.03
2018-06-10T01:43:25.745Z,17.04
2018-06-10T01:45:53.435Z,17.05
2018-06-10T01:48:21.175Z,17.03
2018-06-10T01:50:48.875Z,16.93
2018-06-10T01:53:16.534Z,16.89
2018-06-10T01:55:44.209Z,17.10
2018-06-10T01:58:11.858Z,17.05
2018-06-10T02:00:39.538Z,16.97
2018-06-10T02:03:07.226Z,16.90
2018-06-10T02:05:34.894Z,17.14
2018-06-10T02:08:02.592Z,17.07
2018-06-10T02:10:30.285Z,16.98
2018-06-10T02:12:58.006Z,16.86
2018-06-10T02:15:25.711Z,16.76
2018-06-10T02:17:53.443Z,16.70
2018-06-10T02:20:21.092Z,16.62
2018-06-10T02:22:48.837Z,16.52
2018-06-10T02:25:16.547Z,16.58
2018-06-10T02:27:44.255Z,16.51
2018-06-10T02:30:11.906Z,16.49
2018-06-10T02:32:39.601Z,16.47
2018-06-10T02:35:07.281Z,16.55
2018-06-10T02:37:34.991Z,16.53
2018-06-10T02:40:02.690Z,16.54
2018-06-10T02:42:30.350Z,16.77
2018-06-10T02:44:58.075Z,16.93
2018-06-10T02:47:25.754Z,16.94
2018-06-10T02:49:53.430Z,16.85
2018-06-10T02:52:21.135Z,16.84
2018-06-10T02:54:48.803Z,16.70
2018-06-10T02:57:16.555Z,16.65
2018-06-10T02:59:44.240Z,16.58
2018-06-10T03:02:11.949Z,16.54
2018-06-10T03:04:39.696Z,16.47
2018-06-10T03:07:07.342Z,16.42
2018-06-10T03:09:35.013Z,16.39
2018-06-10T03:12:02.756Z,16.42
2018-06-10T03:14:31.578Z,16.46
2018-06-10T03:16:59.233Z,16.49
2018-06-10T03:19:26.930Z,16.44
2018-06-10T03:21:54.658Z,16.43
2018-06-10T03:24:22.347Z,16.41
2018-06-10T03:26:50.067Z,16.40
2018-06-10T03:29:17.819Z,16.40
2018-06-10T03:31:45.539Z,16.37
2018-06-10T03:34:13.198Z,16.51
2018-06-10T03:36:40.887Z,16.43
2018-06-10T03:39:08.571Z,16.46
2018-06-10T03:41:36.230Z,16.42
2018-06-10T03:44:03.946Z,16.36
2018-06-10T03:46:31.631Z,16.42
2018-06-10T03:48:59.294Z,16.60
2018-06-10T03:51:26.946Z,16.70
2018-06-10T03:53:54.697Z,16.75
2018-06-10T03:56:22.382Z,16.81
2018-06-10T03:58:50.127Z,16.80
2018-06-10T04:01:17.809Z,16.80
2018-06-10T04:03:45.550Z,16.65
2018-06-10T04:06:13.231Z,16.66
2018-06-10T04:08:40.938Z,16.75
2018-06-10T04:11:08.705Z,16.78
2018-06-10T04:13:36.439Z,16.84
2018-06-10T04:16:04.173Z,16.70
2018-06-10T04:18:31.890Z,16.86
2018-06-10T04:20:59.631Z,16.98
2018-06-10T04:23:27.328Z,17.12
2018-06-10T04:25:55.018Z,17.06
2018-06-10T04:28:22.749Z,17.39
2018-06-10T04:30:50.414Z,17.44
2018-06-10T04:33:18.105Z,17.44
2018-06-10T04:35:45.774Z,17.58
2018-06-10T04:38:13.498Z,17.83
2018-06-10T04:40:41.158Z,18.05
2018-06-10T04:43:08.887Z,17.99
2018-06-10T04:45:36.594Z,18.21
2018-06-10T04:48:04.341Z,18.52
2018-06-10T04:50:32.015Z,18.53
2018-06-10T04:52:59.707Z,18.53
2018-06-10T04:55:27.346Z,18.75
2018-06-10T04:57:55.061Z,18.99
2018-06-10T05:00:22.791Z,19.09
2018-06-10T05:02:50.466Z,19.21
2018-06-10T05:05:18.129Z,19.33
2018-06-10T05:07:45.828Z,19.37
2018-06-10T05:10:13.518Z,19.58
2018-06-10T05:12:41.207Z,19.72
2018-06-10T05:15:08.986Z,19.93
2018-06-10T05:17:36.678Z,20.02
2018-06-10T05:20:04.507Z,20.22
2018-06-10T05:22:32.124Z,20.38
2018-06-10T05:24:59.782Z,20.63
2018-06-10T05:27:27.502Z,20.98
2018-06-10T05:29:55.190Z,21.24
2018-06-10T05:32:22.874Z,21.54
2018-06-10T05:34:50.613Z,21.61
2018-06-10T05:37:18.309Z,22.03
2018-06-10T05:39:46.022Z,22.02
2018-06-10T05:42:13.726Z,22.16
2018-06-10T05:44:41.415Z,22.34
2018-06-10T05:47:09.117Z,22.55
2018-06-10T05:49:36.809Z,22.89
2018-06-10T05:52:04.577Z,23.14
2018-06-10T05:54:32.237Z,23.49
2018-06-10T05:56:59.972Z,23.61
2018-06-10T05:59:27.701Z,23.54
2018-06-10T06:01:55.453Z,23.53
2018-06-10T06:04:23.187Z,23.61
2018-06-10T06:06:50.893Z,23.89
2018-06-10T06:09:18.587Z,24.08
2018-06-10T06:11:46.282Z,24.17
2018-06-10T06:14:14.014Z,24.17
2018-06-10T06:16:41.688Z,24.27
2018-06-10T06:19:09.389Z,24.51
2018-06-10T06:21:37.100Z,24.41
2018-06-10T06:24:04.806Z,24.72
2018-06-10T06:26:32.542Z,24.68
2018-06-10T06:29:00.498Z,24.87
2018-06-10T06:31:28.267Z,24.77
2018-06-10T06:33:56.023Z,24.79
2018-06-10T06:36:23.747Z,25.06
2018-06-10T06:38:51.454Z,25.13
2018-06-10T06:41:19.122Z,25.42
2018-06-10T06:43:47.149Z,25.28
2018-06-10T06:46:14.842Z,25.80
2018-06-10T06:48:42.601Z,25.97
2018-06-10T06:51:10.329Z,26.41
2018-06-10T06:53:38.080Z,26.11
2018-06-10T06:56:05.843Z,26.49
2018-06-10T06:58:33.538Z,26.64
2018-06-10T07:01:01.237Z,26.88
2018-06-10T07:03:28.929Z,26.91
2018-06-10T07:05:56.638Z,26.12
2018-06-10T07:08:24.361Z,26.63
2018-06-10T07:10:52.035Z,27.07
2018-06-10T07:13:19.828Z,27.95
2018-06-10T07:15:47.604Z,28.74
2018-06-10T07:18:15.303Z,29.44
2018-06-10T07:20:43.005Z,29.35
2018-06-10T07:23:10.728Z,28.82
2018-06-10T07:25:38.479Z,28.72
2018-06-10T07:28:06.344Z,28.90
2018-06-10T07:30:34.278Z,29.22
2018-06-10T07:33:01.995Z,29.24
2018-06-10T07:35:29.660Z,29.81
2018-06-10T07:37:57.388Z,30.56
2018-06-10T07:40:25.152Z,31.01
2018-06-10T07:42:52.824Z,31.06
2018-06-10T07:45:20.545Z,31.03
2018-06-10T07:47:48.217Z,32.12
2018-06-10T07:50:15.901Z,32.65
2018-06-10T07:52:43.590Z,32.77
2018-06-10T07:55:11.284Z,32.49
2018-06-10T07:57:38.971Z,32.30
2018-06-10T08:00:06.727Z,32.95
2018-06-10T08:02:34.429Z,33.57
2018-06-10T08:05:02.187Z,33.54
2018-06-10T08:07:30.305Z,33.99
2018-06-10T08:09:57.995Z,34.40
2018-06-10T08:12:25.676Z,34.20
2018-06-10T08:14:53.497Z,34.61
2018-06-10T08:17:21.234Z,34.69
2018-06-10T08:19:48.930Z,34.97
2018-06-10T08:22:16.671Z,34.54
2018-06-10T08:24:44.347Z,35.45
2018-06-10T08:27:12.049Z,35.42
2018-06-10T08:29:39.742Z,34.74
2018-06-10T08:32:07.432Z,33.23
2018-06-10T08:34:35.162Z,32.97
2018-06-10T08:37:02.954Z,33.11
2018-06-10T08:39:30.668Z,33.15
2018-06-10T08:41:58.379Z,33.49
2018-06-10T08:44:26.161Z,34.88
2018-06-10T08:46:53.883Z,35.29
2018-06-10T08:49:21.750Z,35.74
2018-06-10T08:51:49.419Z,36.28
2018-06-10T08:54:17.310Z,36.13
2018-06-10T08:56:44.979Z,36.36
2018-06-10T08:59:12.650Z,36.86
2018-06-10T09:01:40.343Z,37.43
2018-06-10T09:04:08.028Z,36.72
2018-06-10T09:06:35.743Z,35.83
2018-06-10T09:09:05.615Z,35.05
2018-06-10T09:11:33.315Z,34.73
2018-06-10T09:14:01.069Z,35.18
2018-06-10T09:16:28.784Z,35.28
2018-06-10T09:18:56.563Z,35.47
2018-06-10T09:21:24.238Z,34.71
2018-06-10T09:23:51.968Z,35.13
2018-06-10T09:26:19.666Z,35.13
2018-06-10T09:28:47.350Z,34.03
2018-06-10T09:31:15.043Z,34.06
2018-06-10T09:33:42.832Z,34.81
2018-06-10T09:36:10.553Z,34.63
2018-06-10T09:38:38.250Z,33.83
2018-06-10T09:41:05.995Z,33.26
2018-06-10T09:43:33.701Z,32.97
2018-06-10T09:46:01.419Z,33.00
2018-06-10T09:48:29.100Z,32.80
2018-06-10T09:50:57.857Z,32.70
2018-06-10T09:53:25.545Z,32.01
2018-06-10T09:55:53.254Z,31.97
2018-06-10T09:58:20.963Z,32.00
2018-06-10T10:00:48.677Z,32.06
2018-06-10T10:03:16.391Z,32.85
2018-06-10T10:05:44.099Z,33.98
2018-06-10T10:08:11.778Z,35.17
2018-06-10T10:10:39.425Z,35.58
2018-06-10T10:13:07.131Z,36.29
2018-06-10T10:15:35.019Z,35.45
2018-06-10T10:18:02.844Z,35.80
2018-06-10T10:20:30.506Z,35.90
2018-06-10T10:22:58.118Z,35.29
2018-06-10T10:25:26.690Z,35.80
2018-06-10T10:27:54.393Z,36.33
2018-06-10T10:30:22.093Z,36.44
2018-06-10T10:32:50.240Z,36.51
2018-06-10T10:35:17.921Z,36.31
2018-06-10T10:37:45.640Z,36.52
2018-06-10T10:40:13.346Z,36.21
2018-06-10T10:42:41.019Z,36.29
2018-06-10T10:45:08.645Z,36.03
2018-06-10T10:47:36.341Z,35.81
2018-06-10T10:50:04.101Z,36.43
2018-06-10T10:52:31.790Z,37.01
2018-06-10T10:54:59.436Z,37.29
2018-06-10T10:57:27.100Z,37.05
2018-06-10T10:59:54.746Z,36.62
2018-06-10T11:02:22.460Z,36.32
2018-06-10T11:04:50.155Z,35.99
2018-06-10T11:07:17.769Z,35.58
2018-06-10T11:09:45.491Z,35.43
2018-06-10T11:12:13.283Z,35.00
2018-06-10T11:14:41.002Z,34.28
2018-06-10T11:17:08.779Z,33.42
2018-06-10T11:19:36.462Z,32.94
2018-06-10T11:22:04.124Z,32.89
2018-06-10T11:24:31.766Z,32.79
2018-06-10T11:26:59.505Z,33.05
2018-06-10T11:29:27.251Z,33.16
2018-06-10T11:31:54.918Z,33.05
2018-06-10T11:34:22.604Z,33.23
2018-06-10T11:36:50.266Z,33.19
2018-06-10T11:39:17.930Z,32.55
2018-06-10T11:41:45.720Z,32.75
2018-06-10T11:44:13.413Z,32.02
2018-06-10T11:46:41.126Z,31.95
2018-06-10T11:49:08.781Z,32.16
2018-06-10T11:51:36.681Z,31.91
2018-06-10T11:54:04.455Z,31.56
2018-06-10T11:56:32.118Z,31.62
2018-06-10T11:58:59.823Z,31.99
2018-06-10T12:01:27.486Z,32.08
2018-06-10T12:03:55.246Z,32.23
2018-06-10T12:06:22.974Z,32.35
2018-06-10T12:08:50.603Z,32.38
2018-06-10T12:11:18.278Z,32.47
2018-06-10T12:13:46.037Z,32.44
2018-06-10T12:16:13.784Z,32.30
2018-06-10T12:18:41.506Z,32.54
2018-06-10T12:21:09.157Z,32.15
2018-06-10T12:23:36.824Z,32.25
2018-06-10T12:26:04.516Z,32.00
2018-06-10T12:28:32.218Z,31.75
2018-06-10T12:30:59.910Z,31.55
2018-06-10T12:33:27.578Z,31.83
2018-06-10T12:35:55.230Z,31.34
2018-06-10T12:38:22.867Z,31.04
2018-06-10T12:40:50.578Z,30.34
2018-06-10T12:43:18.300Z,30.11
2018-06-10T12:45:46.015Z,30.14
2018-06-10T12:48:13.710Z,29.95
2018-06-10T12:50:41.658Z,29.66
2018-06-10T12:53:09.357Z,29.73
2018-06-10T12:55:37.067Z,29.75
2018-06-10T12:58:05.221Z,29.65
2018-06-10T13:00:32.989Z,29.37
2018-06-10T13:03:00.757Z,29.45
2018-06-10T13:05:28.496Z,29.45
2018-06-10T13:07:56.206Z,29.47
2018-06-10T13:10:23.958Z,29.36
2018-06-10T13:12:51.690Z,29.32
2018-06-10T13:15:19.497Z,28.91
2018-06-10T13:17:47.270Z,27.22
2018-06-10T13:20:14.957Z,25.91
2018-06-10T13:22:42.680Z,25.67
2018-06-10T13:25:10.423Z,25.00
2018-06-10T13:27:38.205Z,24.72
2018-06-10T13:30:05.935Z,23.88
2018-06-10T13:32:33.690Z,22.46
2018-06-10T13:35:01.435Z,21.68
2018-06-10T13:37:29.156Z,21.18
2018-06-10T13:39:56.974Z,21.29
2018-06-10T13:42:24.677Z,21.15
2018-06-10T13:44:52.387Z,21.29
2018-06-10T13:47:20.124Z,21.45
2018-06-10T13:49:47.820Z,21.78
2018-06-10T13:52:15.533Z,22.02
2018-06-10T13:54:43.225Z,22.24
2018-06-10T13:57:10.926Z,22.39
2018-06-10T13:59:38.709Z,22.62
2018-06-10T14:02:06.475Z,22.85
2018-06-10T14:04:34.190Z,22.80
2018-06-10T14:07:01.989Z,22.60
2018-06-10T14:09:29.739Z,22.45
2018-06-10T14:11:57.456Z,22.29
2018-06-10T14:14:25.323Z,22.12
2018-06-10T14:16:53.117Z,22.34
2018-06-10T14:19:20.795Z,22.41
2018-06-10T14:21:48.567Z,22.67
2018-06-10T14:24:17.103Z,22.64
2018-06-10T14:26:44.822Z,22.63
2018-06-10T14:29:12.582Z,22.63
2018-06-10T14:31:40.270Z,22.67
2018-06-10T14:34:08.123Z,22.45
2018-06-10T14:36:35.857Z,22.71
2018-06-10T14:39:05.599Z,22.70
2018-06-10T14:41:33.328Z,22.60
2018-06-10T14:44:01.171Z,22.62
2018-06-10T14:46:28.925Z,22.68
2018-06-10T14:48:57.101Z,22.73
2018-06-10T14:51:24.818Z,22.62
2018-06-10T14:53:52.506Z,22.55
2018-06-10T14:56:20.226Z,22.62
2018-06-10T14:58:47.915Z,22.76
2018-06-10T15:01:15.676Z,22.78
2018-06-10T15:03:43.402Z,22.96
2018-06-10T15:06:11.235Z,23.08
2018-06-10T15:08:38.969Z,23.23
2018-06-10T15:11:06.686Z,23.32
2018-06-10T15:13:34.646Z,23.32
2018-06-10T15:16:02.346Z,23.42
2018-06-10T15:18:30.054Z,23.57
2018-06-10T15:20:57.881Z,23.76
2018-06-10T15:23:25.581Z,23.83
2018-06-10T15:25:53.314Z,23.94
2018-06-10T15:28:21.022Z,24.14
2018-06-10T15:30:48.774Z,24.18
2018-06-10T15:33:16.858Z,24.17
2018-06-10T15:35:44.562Z,24.37
2018-06-10T15:38:12.266Z,24.46
2018-06-10T15:40:40.003Z,24.40
2018-06-10T15:43:07.739Z,24.35
2018-06-10T15:45:35.512Z,24.54
2018-06-10T15:48:03.242Z,24.70
2018-06-10T15:50:30.968Z,24.73
2018-06-10T15:52:58.667Z,24.73
2018-06-10T15:55:26.480Z,24.83
2018-06-10T15:57:54.191Z,25.12
2018-06-10T16:00:21.861Z,25.01
2018-06-10T16:02:49.578Z,24.97
2018-06-10T16:05:17.323Z,25.07
2018-06-10T16:07:45.041Z,24.99
2018-06-10T16:10:12.819Z,24.86
2018-06-10T16:12:40.565Z,24.82
2018-06-10T16:15:08.263Z,24.81
2018-06-10T16:17:36.044Z,24.70
2018-06-10T16:20:03.756Z,24.61
2018-06-10T16:22:31.505Z,24.48
2018-06-10T16:24:59.238Z,24.60
2018-06-10T16:27:26.935Z,24.63
2018-06-10T16:29:54.618Z,24.68
2018-06-10T16:32:22.388Z,24.49
2018-06-10T16:34:50.103Z,24.50
2018-06-10T16:37:17.879Z,24.74
2018-06-10T16:39:45.590Z,24.53
2018-06-10T16:42:13.354Z,24.50
2018-06-10T16:44:41.116Z,24.76
2018-06-10T16:47:08.886Z,24.79
2018-06-10T16:49:36.606Z,24.69
2018-06-10T16:52:04.295Z,24.93
2018-06-10T16:54:32.055Z,24.95
2018-06-10T16:56:59.823Z,24.87
2018-06-10T16:59:27.578Z,25.03
2018-06-10T17:01:55.305Z,24.84
2018-06-10T17:04:23.089Z,24.93
2018-06-10T17:06:50.786Z,24.88
2018-06-10T17:09:18.457Z,24.97
2018-06-10T17:11:46.182Z,25.02
2018-06-10T17:14:13.918Z,25.13
2018-06-10T17:16:41.642Z,24.92
2018-06-10T17:19:09.368Z,24.85
2018-06-10T17:21:37.080Z,24.63
2018-06-10T17:24:04.765Z,24.83
2018-06-10T17:26:32.466Z,24.78
2018-06-10T17:29:00.199Z,24.54
2018-06-10T17:31:27.954Z,24.60
2018-06-10T17:33:55.706Z,24.48
2018-06-10T17:36:23.470Z,24.49
2018-06-10T17:38:51.192Z,24.49
2018-06-10T17:41:18.985Z,24.46
2018-06-10T17:43:46.898Z,24.58
2018-06-10T17:46:14.594Z,24.67
2018-06-10T17:48:42.328Z,24.41
2018-06-10T17:51:10.054Z,24.47
2018-06-10T17:53:37.799Z,24.50
2018-06-10T17:56:05.484Z,24.49
2018-06-10T17:58:33.176Z,24.50
2018-06-10T18:01:00.879Z,24.27
2018-06-10T18:03:28.611Z,24.41
2018-06-10T18:05:56.308Z,24.42
2018-06-10T18:08:24.027Z,24.28
2018-06-10T18:10:51.915Z,24.36
2018-06-10T18:13:19.600Z,24.30
2018-06-10T18:15:47.330Z,24.26
2018-06-10T18:18:15.058Z,24.18
2018-06-10T18:20:42.766Z,24.08
2018-06-10T18:23:10.571Z,23.97
2018-06-10T18:25:38.324Z,23.76
2018-06-10T18:28:06.087Z,23.78
2018-06-10T18:30:33.799Z,23.76
2018-06-10T18:33:01.493Z,23.81
2018-06-10T18:35:29.315Z,23.64
2018-06-10T18:37:57.087Z,23.63
2018-06-10T18:40:24.806Z,23.57
2018-06-10T18:42:52.590Z,23.39
2018-06-10T18:45:20.309Z,23.08
2018-06-10T18:47:48.006Z,22.94
2018-06-10T18:50:15.715Z,22.92
2018-06-10T18:52:43.428Z,22.90
2018-06-10T18:55:11.188Z,22.81
2018-06-10T18:57:38.914Z,22.78
2018-06-10T19:00:06.646Z,22.96
2018-06-10T19:02:34.362Z,22.88
2018-06-10T19:05:02.157Z,22.78
2018-06-10T19:07:29.903Z,22.63
2018-06-10T19:09:57.645Z,22.46
2018-06-10T19:12:25.429Z,22.34
2018-06-10T19:14:53.528Z,22.26
2018-06-10T19:17:21.277Z,22.17
2018-06-10T19:19:48.980Z,22.08
2018-06-10T19:22:16.690Z,21.98
2018-06-10T19:24:44.384Z,21.82
2018-06-10T19:27:12.135Z,21.58
2018-06-10T19:29:39.859Z,21.62
2018-06-10T19:32:07.605Z,21.62
2018-06-10T19:34:35.298Z,21.50
2018-06-10T19:37:02.989Z,21.52
2018-06-10T19:39:30.711Z,21.51
2018-06-10T19:41:58.431Z,21.51
2018-06-10T19:44:26.195Z,21.54
2018-06-10T19:46:53.858Z,21.42
2018-06-10T19:49:21.601Z,21.35
2018-06-10T19:51:49.361Z,21.16
2018-06-10T19:54:17.058Z,21.25
2018-06-10T19:56:44.841Z,21.38
2018-06-10T19:59:12.654Z,21.26
2018-06-10T20:01:40.563Z,21.14
2018-06-10T20:04:08.305Z,20.90
2018-06-10T20:06:36.023Z,20.77
2018-06-10T20:09:05.638Z,20.56
2018-06-10T20:11:33.458Z,20.47
2018-06-10T20:14:01.211Z,20.23
2018-06-10T20:16:28.906Z,20.22
2018-06-10T20:18:56.646Z,20.38
2018-06-10T20:21:24.367Z,20.36
2018-06-10T20:23:52.087Z,20.22
2018-06-10T20:26:20.172Z,20.13
2018-06-10T20:28:47.896Z,20.09
2018-06-10T20:31:15.607Z,19.99
2018-06-10T20:33:43.350Z,19.93
2018-06-10T20:36:11.086Z,19.86
2018-06-10T20:38:38.772Z,19.92
2018-06-10T20:41:06.521Z,19.97
2018-06-10T20:43:34.226Z,20.01
2018-06-10T20:46:01.952Z,20.01
2018-06-10T20:48:29.726Z,19.93
2018-06-10T20:50:57.387Z,19.99
2018-06-10T20:53:25.107Z,19.93
2018-06-10T20:55:52.811Z,19.95
2018-06-10T20:58:20.535Z,19.99
2018-06-10T21:00:48.267Z,19.85
2018-06-10T21:03:16.079Z,19.96
2018-06-10T21:05:43.785Z,20.01
2018-06-10T21:08:11.507Z,19.99
2018-06-10T21:10:39.231Z,20.01
2018-06-10T21:13:06.959Z,19.84
2018-06-10T21:15:34.700Z,19.86
2018-06-10T21:18:02.371Z,19.90
2018-06-10T21:20:30.122Z,19.86
2018-06-10T21:22:57.810Z,19.88
2018-06-10T21:25:25.575Z,19.75
2018-06-10T21:27:53.267Z,19.62
2018-06-10T21:30:21.038Z,19.53
2018-06-10T21:32:48.805Z,19.44
2018-06-10T21:35:16.569Z,19.39
2018-06-10T21:37:44.354Z,19.32
2018-06-10T21:40:12.037Z,19.32
2018-06-10T21:42:39.718Z,19.21
2018-06-10T21:45:07.478Z,19.12
2018-06-10T21:47:35.324Z,19.15
2018-06-10T21:50:03.111Z,19.08
2018-06-10T21:52:30.792Z,19.11
2018-06-10T21:54:58.560Z,19.10
2018-06-10T21:57:26.310Z,19.01
2018-06-10T21:59:54.043Z,19.00
2018-06-10T22:02:21.763Z,18.94
2018-06-10T22:04:49.487Z,18.91
2018-06-10T22:07:17.177Z,18.80
2018-06-10T22:09:44.892Z,18.73
2018-06-10T22:12:12.610Z,18.84
2018-06-10T22:14:40.283Z,18.87
2018-06-10T22:17:07.984Z,18.88
2018-06-10T22:19:35.664Z,18.86
2018-06-10T22:22:03.342Z,18.80
2018-06-10T22:24:31.064Z,18.81
2018-06-10T22:26:58.849Z,18.87
2018-06-10T22:29:26.584Z,18.90
2018-06-10T22:31:54.234Z,18.82
2018-06-10T22:34:21.940Z,18.84
2018-06-10T22:36:49.631Z,18.80
2018-06-10T22:39:17.313Z,18.67
2018-06-10T22:41:44.978Z,18.62
2018-06-10T22:44:12.660Z,18.52
2018-06-10T22:46:40.375Z,18.54
2018-06-10T22:49:08.069Z,18.42
2018-06-10T22:51:35.755Z,18.40
2018-06-10T22:54:09.284Z,18.39
2018-06-10T22:56:37.047Z,18.38
2018-06-10T22:59:04.771Z,18.35
2018-06-10T23:01:32.482Z,18.36
2018-06-10T23:04:00.260Z,18.38
2018-06-10T23:06:27.940Z,18.30
2018-06-10T23:08:55.627Z,18.34
2018-06-10T23:11:23.291Z,18.29
2018-06-10T23:13:50.995Z,18.20
2018-06-10T23:16:18.638Z,18.21
2018-06-10T23:18:46.304Z,18.26
2018-06-10T23:21:13.982Z,18.24
2018-06-10T23:23:41.635Z,18.28
2018-06-10T23:26:09.408Z,18.14
2018-06-10T23:28:37.215Z,18.15
2018-06-10T23:31:04.906Z,18.10
2018-06-10T23:33:32.582Z,18.04
2018-06-10T23:36:00.298Z,18.02
2018-06-10T23:38:27.977Z,18.02
2018-06-10T23:40:55.640Z,18.11
2018-06-10T23:43:23.362Z,18.23
2018-06-10T23:45:51.076Z,18.18
2018-06-10T23:48:18.786Z,18.17
2018-06-10T23:50:46.477Z,18.14
2018-06-10T23:53:14.176Z,18.04
2018-06-10T23:55:41.832Z,18.10
2018-06-10T23:58:09.746Z,18.19
